Time;durP1;ratioP1;P1;durP2;ratioP2;P2;SDS_P1;SDS_P2;PMS_P1;PMS_P2;Temp;Humidity;BMP_temperature;BMP_pressure;BME280_temperature;BME280_humidity;BME280_pressure;Samples;Min_cycle;Max_cycle;Signal;HPM_P1;HPM_P2
2024/01/01 00:00:52;;;;;;;10.98;10.48;;;;;;;;;;5071255;28;20385;-60
2024/01/01 00:03:17;;;;;;;11.20;10.65;;;;;;;;;;5063778;28;20484;-61
2024/01/01 00:05:42;;;;;;;11.10;10.60;;;;;;;;;;5070587;28;20028;-61
2024/01/01 00:08:08;;;;;;;11.15;10.63;;;;;;;;;;5065958;28;20092;-60
2024/01/01 00:10:33;;;;;;;10.70;10.20;;;;;;;;;;5071782;28;20417;-61
2024/01/01 00:12:58;;;;;;;10.90;10.40;;;;;;;;;;5070046;28;20019;-60
2024/01/01 00:15:24;;;;;;;10.80;10.30;;;;;;;;;;5069590;28;20388;-61
2024/01/01 00:17:58;;;;;;;11.00;10.50;;;;;;;;;;5065258;28;20385;-61
2024/01/01 00:20:23;;;;;;;10.63;10.13;;;;;;;;;;5050641;28;20036;-60
2024/01/01 00:22:49;;;;;;;10.85;10.35;;;;;;;;;;5043473;28;20492;-60
2024/01/01 00:25:15;;;;;;;10.77;10.27;;;;;;;;;;5048912;28;20025;-60
2024/01/01 00:27:40;;;;;;;11.43;10.82;;;;;;;;;;5043404;28;20535;-60
2024/01/01 00:30:06;;;;;;;10.90;10.40;;;;;;;;;;5055379;28;20016;-61
2024/01/01 00:32:31;;;;;;;11.00;10.50;;;;;;;;;;5046731;28;20021;-61
2024/01/01 00:34:56;;;;;;;11.10;10.60;;;;;;;;;;5049110;28;20096;-61
2024/01/01 00:37:22;;;;;;;11.00;10.50;;;;;;;;;;5049159;28;20049;-61
2024/01/01 00:39:47;;;;;;;10.90;10.40;;;;;;;;;;5049251;28;20100;-61
2024/01/01 00:42:12;;;;;;;11.18;10.65;;;;;;;;;;5050942;28;20078;-61
2024/01/01 00:44:38;;;;;;;11.02;10.52;;;;;;;;;;5049108;28;20758;-61
2024/01/01 00:47:03;;;;;;;11.00;10.50;;;;;;;;;;5041824;28;20072;-60
2024/01/01 00:49:29;;;;;;;10.40;9.90;;;;;;;;;;5049249;28;20021;-62
2024/01/01 00:51:54;;;;;;;11.30;10.70;;;;;;;;;;5037147;28;20025;-61
2024/01/01 00:54:19;;;;;;;10.80;10.30;;;;;;;;;;5040478;28;20028;-60
2024/01/01 00:56:45;;;;;;;11.05;10.55;;;;;;;;;;5046556;28;20056;-60
2024/01/01 00:59:10;;;;;;;10.90;10.40;;;;;;;;;;5056610;28;20049;-62
2024/01/01 01:01:36;;;;;;;11.60;11.00;;;;;;;;;;5043584;28;20021;-60
2024/01/01 01:04:02;;;;;;;10.70;10.20;;;;;;;;;;5043507;28;20028;-59
2024/01/01 01:06:28;;;;;;;10.88;10.38;;;;;;;;;;5043789;28;20021;-61
2024/01/01 01:08:54;;;;;;;11.15;10.60;;;;;;;;;;5045024;28;20384;-61
2024/01/01 01:11:19;;;;;;;10.65;10.15;;;;;;;;;;5034034;28;20022;-60
2024/01/01 01:13:45;;;;;;;11.40;10.80;;;;;;;;;;5032284;28;20524;-61
2024/01/01 01:16:10;;;;;;;10.50;10.00;;;;;;;;;;5034120;28;20053;-61
2024/01/01 01:18:36;;;;;;;10.55;10.05;;;;;;;;;;5045296;28;20388;-60
2024/01/01 01:21:01;;;;;;;10.70;10.20;;;;;;;;;;5038587;28;20418;-61
2024/01/01 01:23:28;;;;;;;10.80;10.30;;;;;;;;;;5054290;28;20015;-60
2024/01/01 01:25:53;;;;;;;10.85;10.35;;;;;;;;;;5040700;28;20048;-59
2024/01/01 01:28:22;;;;;;;11.23;10.73;;;;;;;;;;5032639;28;20465;-60
2024/01/01 01:30:47;;;;;;;11.30;10.70;;;;;;;;;;5035812;28;20054;-61
2024/01/01 01:33:13;;;;;;;11.48;10.88;;;;;;;;;;5030962;28;20469;-62
2024/01/01 01:35:38;;;;;;;11.05;10.50;;;;;;;;;;5032266;28;20404;-60
2024/01/01 01:38:03;;;;;;;10.93;10.43;;;;;;;;;;5030666;28;20017;-60
2024/01/01 01:40:29;;;;;;;10.88;10.38;;;;;;;;;;5043287;28;20465;-61
2024/01/01 01:42:54;;;;;;;10.57;10.07;;;;;;;;;;5033321;28;20014;-61
2024/01/01 01:45:20;;;;;;;10.73;10.23;;;;;;;;;;5033385;28;20049;-60
2024/01/01 01:47:45;;;;;;;10.77;10.27;;;;;;;;;;5037198;28;20035;-61
2024/01/01 01:50:11;;;;;;;10.40;9.90;;;;;;;;;;5022528;28;20393;-61
2024/01/01 01:52:37;;;;;;;11.00;10.50;;;;;;;;;;5039651;28;20020;-60
2024/01/01 01:55:03;;;;;;;10.90;10.40;;;;;;;;;;5026999;28;20022;-61
2024/01/01 01:57:29;;;;;;;11.48;10.88;;;;;;;;;;5030100;28;20036;-60
2024/01/01 01:59:54;;;;;;;11.18;10.60;;;;;;;;;;5033133;28;20017;-61
2024/01/01 02:02:22;;;;;;;10.70;10.20;;;;;;;;;;5031087;28;20477;-61
2024/01/01 02:04:47;;;;;;;10.80;10.30;;;;;;;;;;5033171;28;20541;-61
2024/01/01 02:07:13;;;;;;;11.35;10.75;;;;;;;;;;5030556;28;20108;-60
2024/01/01 02:09:39;;;;;;;11.07;10.55;;;;;;;;;;5031467;28;20021;-60
2024/01/01 02:12:04;;;;;;;10.68;10.18;;;;;;;;;;5031322;28;20060;-62
2024/01/01 02:14:30;;;;;;;10.43;9.93;;;;;;;;;;5031492;28;20116;-61
2024/01/01 02:16:55;;;;;;;10.50;10.00;;;;;;;;;;5031716;28;20566;-61
2024/01/01 02:19:23;;;;;;;10.50;10.00;;;;;;;;;;5033144;28;20021;-60
2024/01/01 02:21:51;;;;;;;11.00;10.50;;;;;;;;;;5024524;28;20439;-61
2024/01/01 02:24:17;;;;;;;10.45;9.95;;;;;;;;;;5032702;28;20539;-60
2024/01/01 02:26:43;;;;;;;10.65;10.15;;;;;;;;;;5023548;28;20021;-60
2024/01/01 02:29:09;;;;;;;10.80;10.30;;;;;;;;;;5033713;28;20025;-60
2024/01/01 02:31:34;;;;;;;10.85;10.35;;;;;;;;;;5032419;28;20025;-61
2024/01/01 02:33:59;;;;;;;10.90;10.40;;;;;;;;;;5037804;28;20020;-60
2024/01/01 02:36:25;;;;;;;11.23;10.63;;;;;;;;;;5031593;28;20017;-60
2024/01/01 02:38:50;;;;;;;11.35;10.75;;;;;;;;;;5031107;28;20025;-58
2024/01/01 02:41:15;;;;;;;10.85;10.35;;;;;;;;;;5030127;28;20551;-59
2024/01/01 02:43:41;;;;;;;11.02;10.52;;;;;;;;;;5043941;28;20102;-60
2024/01/01 02:46:06;;;;;;;10.80;10.30;;;;;;;;;;5030940;28;20056;-60
2024/01/01 02:48:31;;;;;;;10.57;10.07;;;;;;;;;;5030223;28;20025;-62
2024/01/01 02:50:57;;;;;;;11.25;10.68;;;;;;;;;;5037747;28;20030;-60
2024/01/01 02:53:22;;;;;;;11.18;10.60;;;;;;;;;;5030803;28;20032;-60
2024/01/01 02:55:47;;;;;;;11.57;10.98;;;;;;;;;;5031192;28;20029;-60
2024/01/01 02:58:13;;;;;;;10.90;10.40;;;;;;;;;;5042412;28;20019;-60
2024/01/01 03:00:38;;;;;;;11.10;10.55;;;;;;;;;;5032042;28;20035;-60
2024/01/01 03:03:04;;;;;;;11.35;10.75;;;;;;;;;;5029875;28;20028;-60
2024/01/01 03:05:29;;;;;;;10.55;10.05;;;;;;;;;;5029589;28;20489;-60
2024/01/01 03:07:55;;;;;;;10.50;10.00;;;;;;;;;;5030215;28;20052;-60
2024/01/01 03:10:20;;;;;;;10.70;10.20;;;;;;;;;;5032373;28;20044;-59
2024/01/01 03:12:45;;;;;;;10.88;10.38;;;;;;;;;;5031740;28;20428;-61
2024/01/01 03:15:11;;;;;;;10.50;10.00;;;;;;;;;;5026248;28;20117;-60
2024/01/01 03:17:36;;;;;;;10.63;10.13;;;;;;;;;;5028926;28;20049;-60
2024/01/01 03:20:04;;;;;;;11.52;10.93;;;;;;;;;;5030565;28;20021;-61
2024/01/01 03:22:29;;;;;;;11.30;10.70;;;;;;;;;;5025705;28;20029;-61
2024/01/01 03:24:55;;;;;;;10.65;10.15;;;;;;;;;;5035412;28;20021;-60
2024/01/01 03:27:20;;;;;;;10.68;10.18;;;;;;;;;;5031789;28;20025;-59
2024/01/01 03:29:46;;;;;;;11.10;10.55;;;;;;;;;;5038036;28;20025;-60
2024/01/01 03:32:12;;;;;;;10.40;9.90;;;;;;;;;;5029950;28;20030;-60
2024/01/01 03:34:38;;;;;;;10.77;10.27;;;;;;;;;;5036435;28;20102;-61
2024/01/01 03:37:03;;;;;;;11.23;10.63;;;;;;;;;;5041646;28;20489;-61
2024/01/01 03:39:28;;;;;;;10.38;9.88;;;;;;;;;;5023287;28;20469;-60
2024/01/01 03:41:54;;;;;;;10.50;10.00;;;;;;;;;;5043599;28;20392;-61
2024/01/01 03:44:19;;;;;;;10.60;10.10;;;;;;;;;;5042971;28;20476;-60
2024/01/01 03:46:45;;;;;;;11.55;10.95;;;;;;;;;;5030137;28;20465;-60
2024/01/01 03:49:11;;;;;;;10.73;10.23;;;;;;;;;;5037457;28;20547;-60
2024/01/01 03:51:36;;;;;;;10.77;10.27;;;;;;;;;;5037454;28;20108;-59
2024/01/01 03:54:01;;;;;;;11.30;10.70;;;;;;;;;;5042376;28;20028;-60
2024/01/01 03:56:27;;;;;;;10.85;10.35;;;;;;;;;;5041418;28;20469;-59
2024/01/01 03:58:52;;;;;;;11.32;10.73;;;;;;;;;;5030884;28;20394;-60
2024/01/01 04:01:19;;;;;;;10.45;9.95;;;;;;;;;;5039573;28;20022;-60
2024/01/01 04:03:45;;;;;;;10.57;10.07;;;;;;;;;;5038504;28;20029;-59
2024/01/01 04:06:10;;;;;;;11.07;10.52;;;;;;;;;;5029621;28;20180;-61
2024/01/01 04:08:36;;;;;;;10.70;10.20;;;;;;;;;;5034616;28;20104;-61
2024/01/01 04:11:01;;;;;;;10.68;10.18;;;;;;;;;;5030772;28;20033;-60
2024/01/01 04:13:27;;;;;;;11.00;10.50;;;;;;;;;;5026988;28;20683;-61
2024/01/01 04:15:52;;;;;;;10.55;10.05;;;;;;;;;;5025430;28;20054;-60
2024/01/01 04:18:18;;;;;;;10.70;10.20;;;;;;;;;;5033009;28;20171;-61
2024/01/01 04:20:43;;;;;;;10.48;9.98;;;;;;;;;;5029451;28;20018;-60
2024/01/01 04:23:08;;;;;;;11.13;10.52;;;;;;;;;;5039800;28;20045;-59
2024/01/01 04:25:34;;;;;;;10.55;10.05;;;;;;;;;;5030655;28;20025;-59
2024/01/01 04:27:59;;;;;;;10.75;10.25;;;;;;;;;;5029125;28;20025;-60
2024/01/01 04:30:24;;;;;;;10.50;10.00;;;;;;;;;;5022181;28;20018;-61
2024/01/01 04:32:49;;;;;;;10.45;9.95;;;;;;;;;;5027160;28;20022;-61
2024/01/01 04:35:15;;;;;;;10.10;9.60;;;;;;;;;;5035719;28;20029;-60
2024/01/01 04:37:40;;;;;;;10.43;9.93;;;;;;;;;;5030200;28;20371;-60
2024/01/01 04:40:06;;;;;;;10.75;10.25;;;;;;;;;;5033455;28;20024;-60
2024/01/01 04:42:31;;;;;;;10.70;10.20;;;;;;;;;;5029995;28;20068;-60
2024/01/01 04:44:56;;;;;;;10.50;10.00;;;;;;;;;;5029014;28;20028;-60
2024/01/01 04:47:24;;;;;;;10.70;10.20;;;;;;;;;;5035459;28;20026;-60
2024/01/01 04:49:50;;;;;;;10.35;9.85;;;;;;;;;;5031482;28;20104;-60
2024/01/01 04:52:15;;;;;;;10.95;10.43;;;;;;;;;;5029848;28;20498;-61
2024/01/01 04:54:40;;;;;;;10.60;10.10;;;;;;;;;;5031479;28;20026;-60
2024/01/01 04:57:06;;;;;;;11.48;10.88;;;;;;;;;;5023418;28;20036;-60
2024/01/01 04:59:31;;;;;;;10.65;10.15;;;;;;;;;;5031873;28;20104;-60
2024/01/01 05:01:57;;;;;;;10.55;10.05;;;;;;;;;;5034178;28;20370;-59
2024/01/01 05:04:22;;;;;;;11.05;10.48;;;;;;;;;;5031907;28;20026;-59
2024/01/01 05:06:48;;;;;;;10.65;10.15;;;;;;;;;;5033405;28;20100;-61
2024/01/01 05:09:13;;;;;;;10.90;10.40;;;;;;;;;;5032999;28;20631;-61
2024/01/01 05:11:40;;;;;;;10.80;10.30;;;;;;;;;;5030113;28;20021;-60
2024/01/01 05:14:05;;;;;;;10.90;10.40;;;;;;;;;;5029389;28;20026;-60
2024/01/01 05:16:32;;;;;;;11.20;10.60;;;;;;;;;;5023278;28;20091;-60
2024/01/01 05:18:58;;;;;;;11.30;10.70;;;;;;;;;;5033735;28;20026;-60
2024/01/01 05:21:23;;;;;;;10.80;10.30;;;;;;;;;;5032370;28;20018;-60
2024/01/01 05:23:48;;;;;;;10.85;10.35;;;;;;;;;;5033954;28;20024;-60
2024/01/01 05:26:14;;;;;;;10.73;10.23;;;;;;;;;;5031099;28;20473;-59
2024/01/01 05:28:39;;;;;;;10.88;10.38;;;;;;;;;;5033758;28;20473;-61
2024/01/01 05:31:05;;;;;;;10.98;10.48;;;;;;;;;;5030888;28;20021;-61
2024/01/01 05:33:30;;;;;;;10.38;9.88;;;;;;;;;;5043533;28;20029;-63
2024/01/01 05:35:55;;;;;;;10.90;10.40;;;;;;;;;;5028787;28;20400;-61
2024/01/01 05:38:21;;;;;;;11.48;10.88;;;;;;;;;;5024619;28;20462;-59
2024/01/01 05:40:46;;;;;;;10.98;10.48;;;;;;;;;;5028911;28;20104;-60
2024/01/01 05:43:13;;;;;;;10.77;10.27;;;;;;;;;;5030988;28;20097;-60
2024/01/01 05:45:38;;;;;;;11.07;10.57;;;;;;;;;;5032572;28;20037;-61
2024/01/01 05:48:03;;;;;;;11.20;10.60;;;;;;;;;;5034649;28;20082;-60
2024/01/01 05:50:30;;;;;;;10.88;10.38;;;;;;;;;;5032014;28;20017;-60
2024/01/01 05:52:55;;;;;;;10.77;10.27;;;;;;;;;;5024684;28;20022;-61
2024/01/01 05:55:21;;;;;;;10.50;10.00;;;;;;;;;;5032900;28;20037;-60
2024/01/01 05:57:46;;;;;;;10.98;10.48;;;;;;;;;;5030257;28;20567;-60
2024/01/01 06:00:12;;;;;;;10.98;10.48;;;;;;;;;;5038490;28;20429;-61
2024/01/01 06:02:37;;;;;;;10.75;10.25;;;;;;;;;;5030218;28;20013;-61
2024/01/01 06:05:03;;;;;;;10.73;10.23;;;;;;;;;;5033652;28;20393;-60
2024/01/01 06:07:28;;;;;;;11.52;10.93;;;;;;;;;;5029251;28;20417;-60
2024/01/01 06:09:54;;;;;;;10.82;10.32;;;;;;;;;;5032122;28;20570;-59
2024/01/01 06:12:19;;;;;;;10.63;10.13;;;;;;;;;;5035731;28;20183;-60
2024/01/01 06:14:46;;;;;;;10.88;10.35;;;;;;;;;;5032330;28;20036;-60
2024/01/01 06:17:11;;;;;;;11.10;10.50;;;;;;;;;;5032421;28;20042;-60
2024/01/01 06:19:37;;;;;;;10.52;10.02;;;;;;;;;;5030832;28;20014;-59
2024/01/01 06:22:03;;;;;;;10.73;10.23;;;;;;;;;;5029084;28;20098;-60
2024/01/01 06:24:28;;;;;;;10.85;10.35;;;;;;;;;;5041259;28;20029;-60
2024/01/01 06:26:54;;;;;;;10.35;9.85;;;;;;;;;;5039205;28;20028;-60
2024/01/01 06:29:20;;;;;;;10.13;9.68;;;;;;;;;;5032700;28;20033;-60
2024/01/01 06:31:45;;;;;;;10.63;10.13;;;;;;;;;;5032909;28;20159;-60
2024/01/01 06:34:10;;;;;;;10.35;9.85;;;;;;;;;;5031324;28;20028;-60
2024/01/01 06:36:37;;;;;;;10.48;9.98;;;;;;;;;;5032383;28;20441;-61
2024/01/01 06:39:03;;;;;;;10.20;9.70;;;;;;;;;;5025736;28;20025;-60
2024/01/01 06:41:28;;;;;;;10.23;9.73;;;;;;;;;;5032447;28;20096;-60
2024/01/01 06:43:54;;;;;;;10.50;10.00;;;;;;;;;;5035241;28;20105;-61
2024/01/01 06:46:19;;;;;;;10.43;9.93;;;;;;;;;;5030132;28;20174;-60
2024/01/01 06:48:44;;;;;;;10.95;10.45;;;;;;;;;;5034517;28;20108;-60
2024/01/01 06:51:12;;;;;;;10.90;10.40;;;;;;;;;;5032178;28;20784;-61
2024/01/01 06:53:37;;;;;;;11.52;11.02;;;;;;;;;;5025959;28;20029;-60
2024/01/01 06:56:03;;;;;;;11.48;10.98;;;;;;;;;;5031450;28;20029;-60
2024/01/01 06:58:28;;;;;;;11.10;10.60;;;;;;;;;;5029880;28;20400;-61
2024/01/01 07:00:54;;;;;;;11.65;11.15;;;;;;;;;;5025803;28;20041;-61
2024/01/01 07:03:19;;;;;;;11.70;11.20;;;;;;;;;;5020907;28;20053;-61
2024/01/01 07:05:44;;;;;;;11.68;11.18;;;;;;;;;;5031301;28;20094;-60
2024/01/01 07:08:10;;;;;;;12.48;11.88;;;;;;;;;;5029342;28;20010;-61
2024/01/01 07:10:35;;;;;;;12.25;11.65;;;;;;;;;;5031603;28;20036;-61
2024/01/01 07:13:00;;;;;;;11.88;11.38;;;;;;;;;;5031637;28;20018;-60
2024/01/01 07:15:26;;;;;;;11.93;11.43;;;;;;;;;;5027029;28;20013;-60
2024/01/01 07:17:51;;;;;;;12.05;11.55;;;;;;;;;;5023396;28;20041;-60
2024/01/01 07:20:16;;;;;;;11.77;11.27;;;;;;;;;;5029051;28;20018;-60
2024/01/01 07:22:42;;;;;;;12.25;11.68;;;;;;;;;;5027835;28;20018;-60
2024/01/01 07:25:09;;;;;;;12.23;11.65;;;;;;;;;;5031339;28;20052;-60
2024/01/01 07:27:34;;;;;;;12.70;12.10;;;;;;;;;;5031127;28;20080;-61
2024/01/01 07:30:03;;;;;;;11.98;11.48;;;;;;;;;;5027740;28;20025;-61
2024/01/01 07:32:28;;;;;;;12.27;11.70;;;;;;;;;;5023524;28;20037;-61
2024/01/01 07:34:54;;;;;;;12.00;11.50;;;;;;;;;;5028392;28;20032;-62
2024/01/01 07:37:19;;;;;;;12.50;11.90;;;;;;;;;;5031425;28;20025;-61
2024/01/01 07:39:45;;;;;;;12.18;11.68;;;;;;;;;;5029215;28;20025;-60
2024/01/01 07:42:10;;;;;;;12.43;11.82;;;;;;;;;;5031475;28;20545;-61
2024/01/01 07:44:35;;;;;;;12.38;11.77;;;;;;;;;;5027643;28;20018;-60
2024/01/01 07:47:01;;;;;;;12.32;11.77;;;;;;;;;;5019552;28;20018;-61
2024/01/01 07:49:26;;;;;;;12.15;11.60;;;;;;;;;;5026872;28;20126;-60
2024/01/01 07:51:51;;;;;;;12.00;11.50;;;;;;;;;;5030418;28;20673;-61
2024/01/01 07:54:17;;;;;;;12.20;11.70;;;;;;;;;;5021294;28;20048;-61
2024/01/01 07:56:44;;;;;;;12.80;12.20;;;;;;;;;;5030440;28;20396;-61
2024/01/01 07:59:10;;;;;;;12.60;12.00;;;;;;;;;;5027414;28;20032;-61
2024/01/01 08:01:35;;;;;;;12.73;12.13;;;;;;;;;;5025482;28;20040;-61
2024/01/01 08:04:01;;;;;;;12.95;12.35;;;;;;;;;;5030665;28;20649;-61
2024/01/01 08:06:26;;;;;;;12.77;12.18;;;;;;;;;;5030819;28;20029;-61
2024/01/01 08:08:51;;;;;;;12.60;12.00;;;;;;;;;;5025966;28;20026;-61
2024/01/01 08:11:18;;;;;;;12.52;11.93;;;;;;;;;;5030064;28;20048;-61
2024/01/01 08:13:45;;;;;;;12.85;12.25;;;;;;;;;;5022632;28;20026;-60
2024/01/01 08:16:11;;;;;;;12.80;12.20;;;;;;;;;;5023815;28;20049;-61
2024/01/01 08:18:36;;;;;;;12.70;12.10;;;;;;;;;;5029629;28;20033;-60
2024/01/01 08:21:01;;;;;;;12.52;11.93;;;;;;;;;;5030815;28;20101;-60
2024/01/01 08:23:27;;;;;;;13.00;12.40;;;;;;;;;;5030712;28;20014;-60
2024/01/01 08:25:52;;;;;;;13.60;13.00;;;;;;;;;;5024268;28;20022;-62
2024/01/01 08:28:17;;;;;;;12.90;12.30;;;;;;;;;;5024176;28;20017;-62
2024/01/01 08:30:43;;;;;;;12.88;12.27;;;;;;;;;;5028232;28;20533;-61
2024/01/01 08:33:08;;;;;;;13.10;12.50;;;;;;;;;;5028449;28;20025;-62
2024/01/01 08:35:34;;;;;;;12.77;12.18;;;;;;;;;;5030347;28;20029;-61
2024/01/01 08:37:59;;;;;;;12.95;12.35;;;;;;;;;;5031693;28;20068;-61
2024/01/01 08:40:24;;;;;;;12.55;11.95;;;;;;;;;;5029919;28;20500;-60
2024/01/01 08:42:51;;;;;;;12.90;12.30;;;;;;;;;;5031050;28;20074;-61
2024/01/01 08:45:19;;;;;;;12.90;12.30;;;;;;;;;;5033630;28;20028;-61
2024/01/01 08:47:44;;;;;;;13.15;12.55;;;;;;;;;;5030454;28;20017;-60
2024/01/01 08:50:10;;;;;;;12.80;12.20;;;;;;;;;;5034350;28;20029;-61
2024/01/01 08:52:35;;;;;;;12.80;12.20;;;;;;;;;;5034571;28;20017;-59
2024/01/01 08:55:01;;;;;;;13.00;12.40;;;;;;;;;;5034068;28;20025;-60
2024/01/01 08:57:26;;;;;;;12.80;12.20;;;;;;;;;;5033835;28;20048;-60
2024/01/01 08:59:52;;;;;;;13.20;12.60;;;;;;;;;;5028525;28;20381;-62
2024/01/01 09:02:17;;;;;;;13.40;12.80;;;;;;;;;;5034265;28;20465;-59
2024/01/01 09:04:42;;;;;;;13.00;12.40;;;;;;;;;;5035551;28;20025;-60
2024/01/01 09:07:08;;;;;;;12.88;12.27;;;;;;;;;;5035786;28;20087;-60
2024/01/01 09:09:34;;;;;;;13.20;12.60;;;;;;;;;;5023791;28;20018;-61
2024/01/01 09:11:59;;;;;;;12.73;12.13;;;;;;;;;;5034203;28;20026;-61
2024/01/01 09:14:25;;;;;;;12.13;11.63;;;;;;;;;;5033418;28;20034;-61
2024/01/01 09:16:50;;;;;;;12.55;11.95;;;;;;;;;;5026636;28;20050;-61
2024/01/01 09:19:16;;;;;;;12.07;11.57;;;;;;;;;;5032092;28;20022;-61
2024/01/01 09:21:41;;;;;;;12.63;12.02;;;;;;;;;;5034042;28;20084;-61
2024/01/01 09:24:09;;;;;;;12.50;11.90;;;;;;;;;;5025697;28;20389;-61
2024/01/01 09:26:34;;;;;;;12.90;12.30;;;;;;;;;;5033517;28;20435;-62
2024/01/01 09:29:00;;;;;;;12.75;12.15;;;;;;;;;;5033884;28;20104;-62
2024/01/01 09:31:26;;;;;;;12.50;11.90;;;;;;;;;;5033718;28;20037;-61
2024/01/01 09:33:51;;;;;;;12.38;11.77;;;;;;;;;;5033144;28;20388;-61
2024/01/01 09:36:16;;;;;;;12.65;12.05;;;;;;;;;;5031829;28;20396;-60
2024/01/01 09:38:42;;;;;;;12.73;12.13;;;;;;;;;;5024975;28;20026;-61
2024/01/01 09:41:11;;;;;;;12.68;12.07;;;;;;;;;;5031184;28;20028;-61
2024/01/01 09:43:36;;;;;;;12.80;12.20;;;;;;;;;;5033432;28;20083;-60
2024/01/01 09:46:02;;;;;;;12.80;12.20;;;;;;;;;;5028951;28;20030;-61
2024/01/01 09:48:27;;;;;;;12.50;11.90;;;;;;;;;;5039517;28;20423;-60
2024/01/01 09:50:53;;;;;;;12.90;12.30;;;;;;;;;;5030993;28;20030;-60
2024/01/01 09:53:18;;;;;;;12.80;12.20;;;;;;;;;;5033083;28;20034;-61
2024/01/01 09:55:53;;;;;;;12.73;12.13;;;;;;;;;;5033269;28;20088;-60
2024/01/01 09:58:19;;;;;;;11.95;11.45;;;;;;;;;;5033149;28;20040;-61
2024/01/01 10:00:44;;;;;;;12.70;12.10;;;;;;;;;;5033047;28;20413;-60
2024/01/01 10:03:10;;;;;;;12.40;11.80;;;;;;;;;;5033162;28;20021;-61
2024/01/01 10:05:36;;;;;;;12.30;11.70;;;;;;;;;;5032977;28;20018;-62
2024/01/01 10:08:08;;;;;;;12.50;11.90;;;;;;;;;;5031803;28;20025;-61
2024/01/01 10:10:33;;;;;;;12.00;11.43;;;;;;;;;;5032994;28;20045;-62
2024/01/01 10:13:12;;;;;;;12.40;11.80;;;;;;;;;;5032849;28;20069;-62
2024/01/01 10:15:40;;;;;;;12.00;11.45;;;;;;;;;;5032359;28;20539;-61
2024/01/01 10:18:13;;;;;;;12.30;11.70;;;;;;;;;;5032466;28;20488;-61
2024/01/01 10:20:39;;;;;;;12.13;11.52;;;;;;;;;;5027858;28;20535;-62
2024/01/01 10:23:25;;;;;;;12.55;11.95;;;;;;;;;;5032287;28;20053;-61
2024/01/01 10:26:03;;;;;;;12.00;11.40;;;;;;;;;;5031562;28;20113;-60
2024/01/01 10:28:29;;;;;;;11.85;11.35;;;;;;;;;;5031998;28;20022;-60
2024/01/01 10:30:55;;;;;;;12.25;11.65;;;;;;;;;;5032489;28;20013;-61
2024/01/01 10:33:21;;;;;;;12.18;11.57;;;;;;;;;;5030417;28;20071;-61
2024/01/01 10:35:47;;;;;;;11.65;11.15;;;;;;;;;;5032395;28;20013;-61
2024/01/01 10:38:12;;;;;;;12.30;11.70;;;;;;;;;;5029625;28;20030;-62
2024/01/01 10:40:38;;;;;;;12.20;11.60;;;;;;;;;;5026451;28;20465;-61
2024/01/01 10:43:03;;;;;;;13.02;12.43;;;;;;;;;;5028219;28;20376;-61
2024/01/01 10:45:29;;;;;;;12.48;11.88;;;;;;;;;;5030979;28;20095;-62
2024/01/01 10:47:57;;;;;;;12.10;11.50;;;;;;;;;;5020646;28;20067;-61
2024/01/01 10:50:25;;;;;;;12.15;11.55;;;;;;;;;;5031900;28;20435;-61
2024/01/01 10:53:09;;;;;;;11.50;11.00;;;;;;;;;;5025142;28;20088;-60
2024/01/01 10:55:40;;;;;;;12.07;11.48;;;;;;;;;;5031476;28;20106;-62
2024/01/01 10:58:18;;;;;;;12.38;11.77;;;;;;;;;;5026918;28;20033;-61
2024/01/01 11:00:51;;;;;;;11.98;11.38;;;;;;;;;;5026790;28;20026;-61
2024/01/01 11:03:16;;;;;;;12.18;11.57;;;;;;;;;;5031500;28;20014;-63
2024/01/01 11:05:42;;;;;;;11.55;11.05;;;;;;;;;;5028527;28;20112;-60
2024/01/01 11:08:08;;;;;;;12.20;11.60;;;;;;;;;;5027642;28;20017;-61
2024/01/01 11:10:34;;;;;;;11.70;11.20;;;;;;;;;;5028982;28;20075;-61
2024/01/01 11:12:59;;;;;;;11.80;11.27;;;;;;;;;;5031953;28;20841;-59
2024/01/01 11:15:37;;;;;;;11.48;10.98;;;;;;;;;;5027424;28;20657;-61
2024/01/01 11:18:12;;;;;;;12.48;11.88;;;;;;;;;;5026169;28;20045;-61
2024/01/01 11:20:49;;;;;;;12.32;11.73;;;;;;;;;;5024192;28;20013;-61
2024/01/01 11:23:33;;;;;;;12.65;12.05;;;;;;;;;;5027760;28;20299;-61
2024/01/01 11:25:59;;;;;;;11.60;11.10;;;;;;;;;;5031329;28;20014;-61
2024/01/01 11:28:39;;;;;;;12.20;11.60;;;;;;;;;;5031036;28;20021;-62
2024/01/01 11:31:05;;;;;;;11.80;11.27;;;;;;;;;;5028177;28;20014;-61
2024/01/01 11:33:31;;;;;;;11.65;11.15;;;;;;;;;;5027040;28;20100;-62
2024/01/01 11:36:06;;;;;;;12.93;12.27;;;;;;;;;;5030298;28;20056;-61
2024/01/01 11:38:31;;;;;;;11.60;11.10;;;;;;;;;;5028993;28;20489;-61
2024/01/01 11:40:56;;;;;;;11.73;11.20;;;;;;;;;;5031216;28;20053;-61
2024/01/01 11:43:22;;;;;;;11.77;11.25;;;;;;;;;;5027582;28;20041;-61
2024/01/01 11:45:47;;;;;;;12.00;11.40;;;;;;;;;;5029771;28;20056;-62
2024/01/01 11:48:13;;;;;;;11.90;11.30;;;;;;;;;;5024196;28;20491;-61
2024/01/01 11:50:39;;;;;;;12.50;11.90;;;;;;;;;;5026778;28;20061;-61
2024/01/01 11:53:05;;;;;;;11.90;11.30;;;;;;;;;;5029969;28;20438;-61
2024/01/01 11:55:30;;;;;;;11.57;11.05;;;;;;;;;;5032052;28;20063;-59
2024/01/01 11:57:56;;;;;;;12.45;11.85;;;;;;;;;;5024262;28;20029;-61
2024/01/01 12:00:21;;;;;;;11.48;10.98;;;;;;;;;;5029313;28;20056;-61
2024/01/01 12:02:47;;;;;;;11.13;10.63;;;;;;;;;;5020832;28;20032;-60
2024/01/01 12:05:12;;;;;;;11.57;11.07;;;;;;;;;;5030752;28;20014;-60
2024/01/01 12:07:37;;;;;;;12.02;11.43;;;;;;;;;;5030200;28;20095;-63
2024/01/01 12:10:07;;;;;;;12.05;11.45;;;;;;;;;;5031017;28;20362;-60
2024/01/01 12:12:43;;;;;;;12.63;12.02;;;;;;;;;;5026953;28;20032;-61
2024/01/01 12:15:11;;;;;;;11.90;11.30;;;;;;;;;;5021160;28;20481;-61
2024/01/01 12:17:40;;;;;;;12.25;11.65;;;;;;;;;;5027962;28;20132;-61
2024/01/01 12:20:09;;;;;;;12.20;11.60;;;;;;;;;;5026245;28;20028;-60
2024/01/01 12:22:35;;;;;;;11.98;11.38;;;;;;;;;;5021661;28;20151;-62
2024/01/01 12:25:01;;;;;;;12.25;11.65;;;;;;;;;;5026020;28;20104;-61
2024/01/01 12:27:26;;;;;;;12.48;11.88;;;;;;;;;;5030681;28;20485;-61
2024/01/01 12:29:51;;;;;;;12.15;11.55;;;;;;;;;;5029334;28;20044;-60
2024/01/01 12:32:17;;;;;;;12.00;11.40;;;;;;;;;;5023207;28;20026;-60
2024/01/01 12:34:42;;;;;;;11.45;10.95;;;;;;;;;;5027496;28;20025;-61
2024/01/01 12:37:08;;;;;;;11.30;10.80;;;;;;;;;;5028497;28;20055;-60
2024/01/01 12:39:33;;;;;;;12.32;11.73;;;;;;;;;;5027842;28;20488;-60
2024/01/01 12:41:59;;;;;;;11.60;11.10;;;;;;;;;;5026119;28;20481;-61
2024/01/01 12:44:24;;;;;;;11.65;11.15;;;;;;;;;;5025878;28;20017;-61
2024/01/01 12:46:49;;;;;;;12.40;11.80;;;;;;;;;;5020488;28;20049;-61
2024/01/01 12:49:15;;;;;;;12.35;11.75;;;;;;;;;;5029970;28;20370;-61
2024/01/01 12:51:40;;;;;;;12.35;11.75;;;;;;;;;;5021954;28;20115;-61
2024/01/01 12:54:06;;;;;;;11.73;11.13;;;;;;;;;;5024382;28;20587;-61
2024/01/01 12:56:32;;;;;;;12.15;11.55;;;;;;;;;;5025199;28;20030;-61
2024/01/01 12:58:57;;;;;;;11.43;10.93;;;;;;;;;;5024925;28;20032;-61
2024/01/01 13:01:25;;;;;;;12.48;11.88;;;;;;;;;;5025692;28;20393;-61
2024/01/01 13:03:51;;;;;;;12.00;11.40;;;;;;;;;;5027297;28;20014;-61
2024/01/01 13:06:17;;;;;;;11.27;10.77;;;;;;;;;;5023667;28;20017;-61
2024/01/01 13:08:43;;;;;;;11.60;11.10;;;;;;;;;;5027259;28;20044;-61
2024/01/01 13:11:10;;;;;;;11.40;10.90;;;;;;;;;;5030250;28;20021;-61
2024/01/01 13:13:35;;;;;;;11.38;10.88;;;;;;;;;;5021497;28;20022;-61
2024/01/01 13:16:01;;;;;;;12.05;11.45;;;;;;;;;;5025350;28;20068;-61
2024/01/01 13:18:26;;;;;;;11.48;10.98;;;;;;;;;;5029028;28;20024;-60
2024/01/01 13:20:52;;;;;;;11.57;11.07;;;;;;;;;;5029910;28;20032;-62
2024/01/01 13:23:18;;;;;;;11.98;11.38;;;;;;;;;;5027438;28;20028;-61
2024/01/01 13:25:44;;;;;;;12.82;12.15;;;;;;;;;;5032081;28;20097;-60
2024/01/01 13:28:09;;;;;;;12.15;11.55;;;;;;;;;;5031566;28;20498;-60
2024/01/01 13:30:35;;;;;;;11.77;11.18;;;;;;;;;;5034058;28;20017;-62
2024/01/01 13:33:00;;;;;;;12.00;11.40;;;;;;;;;;5032447;28;20475;-60
2024/01/01 13:35:25;;;;;;;11.70;11.10;;;;;;;;;;5031795;28;20022;-61
2024/01/01 13:37:51;;;;;;;11.05;10.55;;;;;;;;;;5030322;28;20389;-61
2024/01/01 13:40:16;;;;;;;11.20;10.70;;;;;;;;;;5024830;28;20833;-61
2024/01/01 13:42:42;;;;;;;11.23;10.73;;;;;;;;;;5033494;28;20049;-61
2024/01/01 13:45:08;;;;;;;11.25;10.75;;;;;;;;;;5031488;28;20032;-60
2024/01/01 13:47:34;;;;;;;12.07;11.48;;;;;;;;;;5033551;28;20025;-61
2024/01/01 13:49:59;;;;;;;11.60;11.10;;;;;;;;;;5030610;28;20033;-61
2024/01/01 13:52:24;;;;;;;11.48;10.98;;;;;;;;;;5033551;28;20052;-62
2024/01/01 13:54:50;;;;;;;12.65;12.00;;;;;;;;;;5033020;28;20568;-61
2024/01/01 13:57:15;;;;;;;11.43;10.93;;;;;;;;;;5033348;28;20053;-62
2024/01/01 13:59:41;;;;;;;11.90;11.30;;;;;;;;;;5032985;28;20473;-60
2024/01/01 14:02:07;;;;;;;11.60;11.02;;;;;;;;;;5031722;28;20010;-60
2024/01/01 14:04:32;;;;;;;11.15;10.65;;;;;;;;;;5029447;28;20096;-60
2024/01/01 14:06:58;;;;;;;11.60;11.00;;;;;;;;;;5029410;28;20163;-61
2024/01/01 14:09:24;;;;;;;10.95;10.45;;;;;;;;;;5033268;28;20017;-62
2024/01/01 14:11:49;;;;;;;11.10;10.60;;;;;;;;;;5032854;28;20021;-61